Time;durP1;ratioP1;P1;durP2;ratioP2;P2;SDS_P1;SDS_P2;PMS_P1;PMS_P2;Temp;Humidity;BMP_temperature;BMP_pressure;BME280_temperature;BME280_humidity;BME280_pressure;Samples;Min_cycle;Max_cycle;Signal;HPM_P1;HPM_P2
2024/01/25 00:00:07;;;;;;;12.98;3.58;;;;;;;;;;5053591;27;92436;-76
2024/01/25 00:02:34;;;;;;;14.10;3.40;;;;;;;;;;5053254;27;92454;-74
2024/01/25 00:05:00;;;;;;;11.13;3.28;;;;;;;;;;5035655;27;93002;-75
2024/01/25 00:07:27;;;;;;;14.88;3.28;;;;;;;;;;5035866;27;92469;-75
2024/01/25 00:09:54;;;;;;;10.68;2.70;;;;;;;;;;5053346;27;92641;-76
2024/01/25 00:12:20;;;;;;;16.50;3.65;;;;;;;;;;5057046;27;92380;-76
2024/01/25 00:14:47;;;;;;;10.32;2.80;;;;;;;;;;5034680;27;93407;-75
2024/01/25 00:17:13;;;;;;;15.10;3.60;;;;;;;;;;5051905;27;94817;-75
2024/01/25 00:19:41;;;;;;;12.55;2.85;;;;;;;;;;5052774;27;94065;-76
2024/01/25 00:22:07;;;;;;;10.48;3.13;;;;;;;;;;5027234;28;92525;-76
2024/01/25 00:24:34;;;;;;;12.32;3.28;;;;;;;;;;5015159;27;93665;-76
2024/01/25 00:27:00;;;;;;;13.27;3.55;;;;;;;;;;5053333;27;92356;-75
2024/01/25 00:29:27;;;;;;;11.20;3.10;;;;;;;;;;5053284;27;92929;-76
2024/01/25 00:31:53;;;;;;;12.32;3.25;;;;;;;;;;5034561;27;92538;-75
2024/01/25 00:34:20;;;;;;;12.88;3.75;;;;;;;;;;5038657;27;93136;-75
2024/01/25 00:36:47;;;;;;;11.43;3.05;;;;;;;;;;5052873;27;92601;-75
2024/01/25 00:39:13;;;;;;;13.43;3.83;;;;;;;;;;5053057;27;93014;-75
2024/01/25 00:41:41;;;;;;;8.68;2.85;;;;;;;;;;5051401;27;95595;-75
2024/01/25 00:44:07;;;;;;;11.30;3.60;;;;;;;;;;5052850;27;92400;-75
2024/01/25 00:46:34;;;;;;;9.65;3.40;;;;;;;;;;5052674;27;92322;-75
2024/01/25 00:49:01;;;;;;;10.05;2.88;;;;;;;;;;5034610;27;93163;-75
2024/01/25 00:51:27;;;;;;;14.30;3.35;;;;;;;;;;5053463;27;92395;-75
2024/01/25 00:53:54;;;;;;;11.73;3.33;;;;;;;;;;5021372;27;94222;-75
2024/01/25 00:56:21;;;;;;;20.23;3.22;;;;;;;;;;5046313;27;92378;-75
2024/01/25 00:58:48;;;;;;;11.70;3.33;;;;;;;;;;5057193;27;92256;-75
2024/01/25 01:01:15;;;;;;;9.82;3.47;;;;;;;;;;5056256;27;92351;-75
2024/01/25 01:03:41;;;;;;;15.32;3.75;;;;;;;;;;5038006;27;93565;-75
2024/01/25 01:06:08;;;;;;;14.50;4.10;;;;;;;;;;5054356;27;94906;-75
2024/01/25 01:08:36;;;;;;;10.07;2.97;;;;;;;;;;5055478;27;92447;-75
2024/01/25 01:11:02;;;;;;;14.68;3.58;;;;;;;;;;5036225;27;95313;-75
2024/01/25 01:13:29;;;;;;;11.18;3.08;;;;;;;;;;5056369;27;92399;-75
2024/01/25 01:15:55;;;;;;;14.48;3.33;;;;;;;;;;5055728;27;92290;-75
2024/01/25 01:18:22;;;;;;;15.90;3.25;;;;;;;;;;5059400;27;92400;-74
2024/01/25 01:20:48;;;;;;;6.35;2.70;;;;;;;;;;5056334;27;93137;-75
2024/01/25 01:23:15;;;;;;;12.50;3.03;;;;;;;;;;5038694;27;92131;-76
2024/01/25 01:25:41;;;;;;;12.30;3.00;;;;;;;;;;5038181;27;93151;-76
2024/01/25 01:28:08;;;;;;;13.88;3.50;;;;;;;;;;5056793;27;93301;-76
2024/01/25 01:30:34;;;;;;;12.05;3.10;;;;;;;;;;5053829;27;94854;-75
2024/01/25 01:33:00;;;;;;;13.70;3.17;;;;;;;;;;5056652;27;95386;-75
2024/01/25 01:35:27;;;;;;;16.83;3.22;;;;;;;;;;5024215;27;93905;-75
2024/01/25 01:37:54;;;;;;;9.50;3.00;;;;;;;;;;5059538;27;92269;-75
2024/01/25 01:40:20;;;;;;;18.42;3.92;;;;;;;;;;5055954;27;93258;-75
2024/01/25 01:42:47;;;;;;;13.57;3.22;;;;;;;;;;5056884;27;92352;-75
2024/01/25 01:45:13;;;;;;;12.23;3.17;;;;;;;;;;5056680;27;92112;-75
2024/01/25 01:47:40;;;;;;;8.55;3.00;;;;;;;;;;5056820;27;92270;-75
2024/01/25 01:50:08;;;;;;;13.32;3.20;;;;;;;;;;5026898;28;94869;-75
2024/01/25 01:52:36;;;;;;;12.82;3.70;;;;;;;;;;5038777;27;92486;-75
2024/01/25 01:55:02;;;;;;;11.25;3.28;;;;;;;;;;5054445;27;95664;-75
2024/01/25 01:57:29;;;;;;;17.58;3.47;;;;;;;;;;5055499;27;92927;-75
2024/01/25 01:59:57;;;;;;;10.68;2.88;;;;;;;;;;5040956;27;92354;-75
2024/01/25 02:02:23;;;;;;;12.57;3.00;;;;;;;;;;5055537;27;92423;-75
2024/01/25 02:04:50;;;;;;;15.05;3.50;;;;;;;;;;5053589;27;92880;-75
2024/01/25 02:07:17;;;;;;;11.07;2.80;;;;;;;;;;5037880;27;94503;-75
2024/01/25 02:09:44;;;;;;;13.50;3.35;;;;;;;;;;5037402;27;92478;-75
2024/01/25 02:12:10;;;;;;;14.15;3.50;;;;;;;;;;5038517;27;92255;-76
2024/01/25 02:14:37;;;;;;;13.07;3.55;;;;;;;;;;5055513;27;92555;-74
2024/01/25 02:17:03;;;;;;;10.85;3.40;;;;;;;;;;5038043;27;92486;-75
2024/01/25 02:19:30;;;;;;;10.93;3.33;;;;;;;;;;5054317;27;94869;-75
2024/01/25 02:21:57;;;;;;;12.48;3.22;;;;;;;;;;5058651;27;92542;-75
2024/01/25 02:24:24;;;;;;;11.63;3.17;;;;;;;;;;5055661;27;93910;-75
2024/01/25 02:26:50;;;;;;;16.23;2.90;;;;;;;;;;5055713;27;92346;-75
2024/01/25 02:29:17;;;;;;;10.95;3.05;;;;;;;;;;5055355;27;92937;-75
2024/01/25 02:31:44;;;;;;;15.35;4.05;;;;;;;;;;5037197;27;93753;-75
2024/01/25 02:34:10;;;;;;;11.82;2.92;;;;;;;;;;5055671;27;93610;-74
2024/01/25 02:36:37;;;;;;;9.20;3.55;;;;;;;;;;5055489;27;92165;-75
2024/01/25 02:39:04;;;;;;;15.68;3.53;;;;;;;;;;5055533;27;92303;-75
2024/01/25 02:41:31;;;;;;;14.35;3.88;;;;;;;;;;5055604;27;93039;-75
2024/01/25 02:43:59;;;;;;;14.80;3.58;;;;;;;;;;5057327;27;94827;-75
2024/01/25 02:46:26;;;;;;;9.07;3.03;;;;;;;;;;5055683;27;92298;-75
2024/01/25 02:48:52;;;;;;;10.38;3.22;;;;;;;;;;5056837;27;92267;-74
2024/01/25 02:51:19;;;;;;;14.10;3.20;;;;;;;;;;5058524;27;92746;-75
2024/01/25 02:53:45;;;;;;;13.45;3.97;;;;;;;;;;5054521;27;93294;-75
2024/01/25 02:56:15;;;;;;;12.38;3.25;;;;;;;;;;5027687;28;92102;-75
2024/01/25 02:58:42;;;;;;;14.48;3.35;;;;;;;;;;5048430;27;92487;-75
2024/01/25 03:01:08;;;;;;;18.13;3.67;;;;;;;;;;5056353;27;92377;-75
2024/01/25 03:03:35;;;;;;;13.73;3.30;;;;;;;;;;5057308;27;92331;-75
2024/01/25 03:06:02;;;;;;;18.95;4.20;;;;;;;;;;5058568;27;92494;-75
2024/01/25 03:08:28;;;;;;;11.32;3.42;;;;;;;;;;5053715;27;94465;-75
2024/01/25 03:10:56;;;;;;;6.45;2.47;;;;;;;;;;5036648;27;94047;-75
2024/01/25 03:13:22;;;;;;;11.68;3.13;;;;;;;;;;5055550;27;92795;-76
2024/01/25 03:15:49;;;;;;;15.63;3.45;;;;;;;;;;5054131;27;92267;-75
2024/01/25 03:18:15;;;;;;;16.05;3.42;;;;;;;;;;5054669;27;92182;-75
2024/01/25 03:20:42;;;;;;;15.05;3.70;;;;;;;;;;5054532;27;93446;-75
2024/01/25 03:23:08;;;;;;;20.70;3.47;;;;;;;;;;5055121;27;92467;-75
2024/01/25 03:25:35;;;;;;;14.82;3.92;;;;;;;;;;5040021;27;92200;-75
2024/01/25 03:28:02;;;;;;;17.67;3.60;;;;;;;;;;5055128;27;92443;-75
2024/01/25 03:30:28;;;;;;;10.73;2.97;;;;;;;;;;5054886;27;92380;-75
2024/01/25 03:32:55;;;;;;;12.80;2.97;;;;;;;;;;5034939;27;95547;-75
2024/01/25 03:35:22;;;;;;;11.30;3.17;;;;;;;;;;5055428;27;92178;-75
2024/01/25 03:37:48;;;;;;;13.10;3.70;;;;;;;;;;5054570;27;92340;-75
2024/01/25 03:40:15;;;;;;;11.30;3.67;;;;;;;;;;5054894;27;93133;-75
2024/01/25 03:42:41;;;;;;;15.82;3.45;;;;;;;;;;5055101;27;92335;-75
2024/01/25 03:45:16;;;;;;;16.70;4.05;;;;;;;;;;5040725;27;92546;-75
2024/01/25 03:47:42;;;;;;;9.75;3.65;;;;;;;;;;5057662;27;92391;-74
2024/01/25 03:50:09;;;;;;;13.63;3.38;;;;;;;;;;5054594;27;92204;-75
2024/01/25 03:52:36;;;;;;;12.98;2.83;;;;;;;;;;5054319;27;93010;-75
2024/01/25 03:55:03;;;;;;;6.72;2.60;;;;;;;;;;5054275;27;92233;-75
2024/01/25 03:57:31;;;;;;;15.02;3.40;;;;;;;;;;5052562;27;94874;-75
2024/01/25 03:59:58;;;;;;;8.60;2.90;;;;;;;;;;5053522;27;92396;-75
2024/01/25 04:02:24;;;;;;;13.80;3.28;;;;;;;;;;5019413;27;93705;-75
2024/01/25 04:04:50;;;;;;;13.18;3.45;;;;;;;;;;5034498;27;92568;-75
2024/01/25 04:07:17;;;;;;;17.02;3.53;;;;;;;;;;5052804;27;92805;-76
2024/01/25 04:09:43;;;;;;;14.18;3.47;;;;;;;;;;5056061;27;92509;-74
2024/01/25 04:12:11;;;;;;;11.50;3.17;;;;;;;;;;5053919;27;92400;-76
2024/01/25 04:14:37;;;;;;;10.68;2.95;;;;;;;;;;5053032;27;92975;-76
2024/01/25 04:17:04;;;;;;;9.30;2.67;;;;;;;;;;5053879;27;92436;-76
2024/01/25 04:19:30;;;;;;;9.35;3.17;;;;;;;;;;5053627;27;93216;-77
2024/01/25 04:21:57;;;;;;;15.10;3.08;;;;;;;;;;5051713;27;94916;-76
2024/01/25 04:24:23;;;;;;;18.02;3.03;;;;;;;;;;5054048;27;93999;-76
2024/01/25 04:26:50;;;;;;;9.95;2.85;;;;;;;;;;5044224;27;93295;-76
2024/01/25 04:29:16;;;;;;;15.15;3.17;;;;;;;;;;5053712;27;92452;-76
2024/01/25 04:31:44;;;;;;;12.25;3.83;;;;;;;;;;5038253;27;94589;-76
2024/01/25 04:34:14;;;;;;;11.63;3.63;;;;;;;;;;5054112;27;92431;-76
2024/01/25 04:36:42;;;;;;;11.70;3.13;;;;;;;;;;5035606;27;92249;-76
2024/01/25 04:39:09;;;;;;;16.75;4.13;;;;;;;;;;5054390;27;92001;-76
2024/01/25 04:41:36;;;;;;;10.25;3.13;;;;;;;;;;5035442;27;92652;-76
2024/01/25 04:44:03;;;;;;;9.93;2.90;;;;;;;;;;5054419;27;91973;-76
2024/01/25 04:46:29;;;;;;;16.92;3.53;;;;;;;;;;5033766;27;97609;-76
2024/01/25 04:48:56;;;;;;;13.43;3.17;;;;;;;;;;5035078;27;93810;-76
2024/01/25 04:51:22;;;;;;;10.32;2.63;;;;;;;;;;5053345;27;92909;-76
2024/01/25 04:53:49;;;;;;;10.20;3.10;;;;;;;;;;5056652;27;93145;-76
2024/01/25 04:56:15;;;;;;;14.57;3.20;;;;;;;;;;5053473;27;93200;-75
2024/01/25 04:58:42;;;;;;;12.35;3.28;;;;;;;;;;5053321;27;93007;-76
2024/01/25 05:01:08;;;;;;;14.93;3.22;;;;;;;;;;5053077;27;92868;-76
2024/01/25 05:03:35;;;;;;;12.77;3.85;;;;;;;;;;5021589;27;91973;-76
2024/01/25 05:06:02;;;;;;;9.77;3.20;;;;;;;;;;5035413;27;93007;-76
2024/01/25 05:08:28;;;;;;;9.35;3.47;;;;;;;;;;5053352;27;92889;-75
2024/01/25 05:10:55;;;;;;;14.25;3.38;;;;;;;;;;5033639;27;94911;-76
2024/01/25 05:13:21;;;;;;;15.60;3.70;;;;;;;;;;5053444;27;92403;-76
2024/01/25 05:15:48;;;;;;;10.73;2.97;;;;;;;;;;5037915;27;95082;-76
2024/01/25 05:18:15;;;;;;;13.35;4.18;;;;;;;;;;5035209;27;94665;-75
2024/01/25 05:20:41;;;;;;;8.77;2.83;;;;;;;;;;5052988;27;92885;-75
2024/01/25 05:23:08;;;;;;;9.13;2.47;;;;;;;;;;5053693;27;92834;-75
2024/01/25 05:25:34;;;;;;;16.23;3.40;;;;;;;;;;5052956;27;92392;-75
2024/01/25 05:28:01;;;;;;;13.23;3.00;;;;;;;;;;5054283;27;91808;-74
2024/01/25 05:30:27;;;;;;;10.32;2.90;;;;;;;;;;5052971;27;92372;-75
2024/01/25 05:32:54;;;;;;;14.60;3.42;;;;;;;;;;5035102;27;92367;-76
2024/01/25 05:35:23;;;;;;;12.00;2.85;;;;;;;;;;5045989;27;94905;-76
2024/01/25 05:37:50;;;;;;;14.02;3.25;;;;;;;;;;5053528;27;91929;-76
2024/01/25 05:40:17;;;;;;;5.80;2.50;;;;;;;;;;5056383;27;92461;-76
2024/01/25 05:42:44;;;;;;;11.70;3.83;;;;;;;;;;5056344;27;92921;-76
2024/01/25 05:45:11;;;;;;;9.43;2.83;;;;;;;;;;5056783;27;95070;-75
2024/01/25 05:47:37;;;;;;;12.07;3.25;;;;;;;;;;5056379;27;92864;-76
2024/01/25 05:50:07;;;;;;;15.82;3.33;;;;;;;;;;5055336;27;92835;-76
2024/01/25 05:52:36;;;;;;;10.82;3.22;;;;;;;;;;5038231;27;94948;-75
2024/01/25 05:55:05;;;;;;;8.00;2.67;;;;;;;;;;5030363;27;94020;-75
2024/01/25 05:57:34;;;;;;;10.07;3.15;;;;;;;;;;5058786;27;93287;-75
2024/01/25 06:00:01;;;;;;;10.90;2.90;;;;;;;;;;5036004;27;95000;-75
2024/01/25 06:02:33;;;;;;;13.90;3.47;;;;;;;;;;5053109;27;95476;-75
2024/01/25 06:05:00;;;;;;;12.93;4.05;;;;;;;;;;5037883;27;94001;-76
2024/01/25 06:07:27;;;;;;;10.07;3.38;;;;;;;;;;5056179;27;92366;-76
2024/01/25 06:09:54;;;;;;;12.15;3.40;;;;;;;;;;5055957;27;92703;-75
2024/01/25 06:12:21;;;;;;;14.15;3.72;;;;;;;;;;5056218;27;92960;-76
2024/01/25 06:14:47;;;;;;;14.00;3.35;;;;;;;;;;5055863;27;92129;-77
2024/01/25 06:17:14;;;;;;;19.70;4.70;;;;;;;;;;5052304;27;92111;-74
2024/01/25 06:19:40;;;;;;;11.00;3.15;;;;;;;;;;5040332;27;92436;-76
2024/01/25 06:22:07;;;;;;;15.35;3.50;;;;;;;;;;5055316;27;92320;-76
2024/01/25 06:24:33;;;;;;;18.35;4.07;;;;;;;;;;5053885;27;94675;-75
2024/01/25 06:27:00;;;;;;;13.05;4.13;;;;;;;;;;5056075;27;92441;-76
2024/01/25 06:29:27;;;;;;;18.95;3.15;;;;;;;;;;5055087;27;93071;-76
2024/01/25 06:31:53;;;;;;;12.77;3.13;;;;;;;;;;5055313;27;93443;-76
2024/01/25 06:34:19;;;;;;;12.20;4.40;;;;;;;;;;5054395;27;93028;-75
2024/01/25 06:36:46;;;;;;;25.55;4.03;;;;;;;;;;5055474;27;92778;-75
2024/01/25 06:39:13;;;;;;;11.35;2.83;;;;;;;;;;5036578;27;93146;-75
2024/01/25 06:41:39;;;;;;;18.92;3.17;;;;;;;;;;5058139;27;92106;-75
2024/01/25 06:44:05;;;;;;;13.90;3.35;;;;;;;;;;5054116;27;93246;-75
2024/01/25 06:46:32;;;;;;;14.50;3.20;;;;;;;;;;5053750;27;92888;-75
2024/01/25 06:48:59;;;;;;;11.88;3.92;;;;;;;;;;5052154;27;95592;-75
2024/01/25 06:51:26;;;;;;;7.68;3.72;;;;;;;;;;5052009;27;92344;-75
2024/01/25 06:53:52;;;;;;;12.60;3.15;;;;;;;;;;5053977;27;92360;-77
2024/01/25 06:56:19;;;;;;;19.80;3.75;;;;;;;;;;5053689;27;92513;-76
2024/01/25 06:58:45;;;;;;;9.95;3.03;;;;;;;;;;5053415;27;92424;-75
2024/01/25 07:01:13;;;;;;;13.52;3.53;;;;;;;;;;5036695;27;93756;-75
2024/01/25 07:03:40;;;;;;;17.27;3.58;;;;;;;;;;5039818;27;92345;-75
2024/01/25 07:06:07;;;;;;;14.63;3.85;;;;;;;;;;5059695;27;92801;-78
2024/01/25 07:08:34;;;;;;;11.77;3.42;;;;;;;;;;5056111;27;92248;-76
2024/01/25 07:11:01;;;;;;;30.75;3.80;;;;;;;;;;5055634;27;92340;-76
2024/01/25 07:13:28;;;;;;;8.85;2.92;;;;;;;;;;5054377;27;94793;-76
2024/01/25 07:15:55;;;;;;;12.68;4.00;;;;;;;;;;5055321;27;93950;-76
2024/01/25 07:18:22;;;;;;;11.80;4.10;;;;;;;;;;5037057;27;94055;-76
2024/01/25 07:20:49;;;;;;;15.30;3.22;;;;;;;;;;5055337;27;92442;-77
2024/01/25 07:23:16;;;;;;;14.25;3.95;;;;;;;;;;5036535;27;92670;-75
2024/01/25 07:25:43;;;;;;;13.65;3.97;;;;;;;;;;5058559;27;93807;-77
2024/01/25 07:28:09;;;;;;;14.90;4.32;;;;;;;;;;5056122;27;92814;-78
2024/01/25 07:30:36;;;;;;;14.85;3.80;;;;;;;;;;5038756;27;92105;-78
2024/01/25 07:33:03;;;;;;;12.98;3.33;;;;;;;;;;5039137;27;95346;-78
2024/01/25 07:35:29;;;;;;;15.80;3.80;;;;;;;;;;5055733;27;93022;-77
2024/01/25 07:37:56;;;;;;;14.48;3.72;;;;;;;;;;5055067;27;94745;-78
2024/01/25 07:40:22;;;;;;;14.90;3.55;;;;;;;;;;5056256;27;92155;-77
2024/01/25 07:42:49;;;;;;;10.75;3.88;;;;;;;;;;5038745;27;92544;-78
2024/01/25 07:45:16;;;;;;;26.52;4.18;;;;;;;;;;5041543;27;93260;-78
2024/01/25 07:47:42;;;;;;;11.27;3.55;;;;;;;;;;5054734;27;92245;-77
2024/01/25 07:50:09;;;;;;;13.98;3.65;;;;;;;;;;5056115;27;93072;-78
2024/01/25 07:52:36;;;;;;;13.05;4.20;;;;;;;;;;5056006;27;93224;-78
2024/01/25 07:55:02;;;;;;;24.92;3.60;;;;;;;;;;5037544;27;91876;-77
2024/01/25 07:57:31;;;;;;;13.32;3.78;;;;;;;;;;5053953;27;92431;-77
2024/01/25 07:59:58;;;;;;;11.93;3.70;;;;;;;;;;5019239;27;92324;-77
2024/01/25 08:02:25;;;;;;;12.05;3.80;;;;;;;;;;5052480;27;94533;-76
2024/01/25 08:04:52;;;;;;;13.38;3.85;;;;;;;;;;5055134;27;93375;-79
2024/01/25 08:07:19;;;;;;;13.95;4.20;;;;;;;;;;5060827;27;92877;-79
2024/01/25 08:09:46;;;;;;;14.30;3.40;;;;;;;;;;5057231;27;92465;-78
2024/01/25 08:12:13;;;;;;;12.18;3.22;;;;;;;;;;5057041;27;92377;-78
2024/01/25 08:14:39;;;;;;;18.73;4.22;;;;;;;;;;5037462;27;92418;-79
2024/01/25 08:17:06;;;;;;;12.55;3.88;;;;;;;;;;5055542;27;92465;-79
2024/01/25 08:19:33;;;;;;;14.75;4.18;;;;;;;;;;5037710;27;92741;-79
2024/01/25 08:21:59;;;;;;;10.68;4.38;;;;;;;;;;5055067;27;92339;-80
2024/01/25 08:24:26;;;;;;;13.73;3.78;;;;;;;;;;5055509;27;92246;-78
2024/01/25 08:26:52;;;;;;;14.25;3.88;;;;;;;;;;5055851;27;94830;-79
2024/01/25 08:29:19;;;;;;;15.48;4.05;;;;;;;;;;5042779;27;94372;-79
2024/01/25 08:31:46;;;;;;;12.18;3.92;;;;;;;;;;5039335;27;92080;-80
2024/01/25 08:34:12;;;;;;;13.05;3.85;;;;;;;;;;5036898;27;92810;-77
2024/01/25 08:36:39;;;;;;;11.82;4.13;;;;;;;;;;5055195;27;92333;-78
2024/01/25 08:39:06;;;;;;;14.93;4.18;;;;;;;;;;5056904;27;92329;-81
2024/01/25 08:41:32;;;;;;;16.15;4.07;;;;;;;;;;5056604;27;93023;-78
2024/01/25 08:43:59;;;;;;;14.63;3.78;;;;;;;;;;5060372;27;91963;-80
2024/01/25 08:46:25;;;;;;;13.45;3.35;;;;;;;;;;5058612;27;92437;-81
2024/01/25 08:48:52;;;;;;;11.45;3.45;;;;;;;;;;5039698;27;92367;-77
2024/01/25 08:51:19;;;;;;;13.20;3.72;;;;;;;;;;5040008;27;95979;-78
2024/01/25 08:53:45;;;;;;;15.10;4.15;;;;;;;;;;5055899;27;93969;-78
2024/01/25 08:56:11;;;;;;;21.50;3.88;;;;;;;;;;5054072;27;93184;-77
2024/01/25 08:58:38;;;;;;;11.68;3.63;;;;;;;;;;5053532;27;92493;-77
2024/01/25 09:01:04;;;;;;;13.18;3.42;;;;;;;;;;5035773;27;92782;-77
2024/01/25 09:03:31;;;;;;;12.52;3.92;;;;;;;;;;5053559;27;92256;-77
2024/01/25 09:05:58;;;;;;;15.68;3.72;;;;;;;;;;5053665;27;92297;-77
2024/01/25 09:08:24;;;;;;;12.32;3.80;;;;;;;;;;5035661;27;91597;-76
2024/01/25 09:10:51;;;;;;;12.80;3.70;;;;;;;;;;5053361;27;92400;-77
2024/01/25 09:13:17;;;;;;;9.50;2.65;;;;;;;;;;5057678;27;92297;-77
2024/01/25 09:15:46;;;;;;;10.50;3.20;;;;;;;;;;5026226;27;96571;-76
2024/01/25 09:18:13;;;;;;;13.15;3.58;;;;;;;;;;5057355;27;92120;-77
2024/01/25 09:20:40;;;;;;;10.85;3.25;;;;;;;;;;5025426;27;92297;-76
2024/01/25 09:23:07;;;;;;;11.32;2.83;;;;;;;;;;5056959;27;92370;-76
2024/01/25 09:25:34;;;;;;;12.80;3.13;;;;;;;;;;5056721;27;93065;-76
2024/01/25 09:28:01;;;;;;;11.88;3.60;;;;;;;;;;5038974;27;92649;-77
2024/01/25 09:30:28;;;;;;;15.82;3.90;;;;;;;;;;5056847;27;92400;-77
2024/01/25 09:32:55;;;;;;;12.68;4.13;;;;;;;;;;5058087;27;92012;-78
2024/01/25 09:35:22;;;;;;;16.25;3.50;;;;;;;;;;5042842;27;92420;-78
2024/01/25 09:37:52;;;;;;;12.15;3.67;;;;;;;;;;5057871;27;92369;-79
2024/01/25 09:40:22;;;;;;;13.48;3.63;;;;;;;;;;5055894;27;94766;-78
2024/01/25 09:42:48;;;;;;;14.10;3.42;;;;;;;;;;5056938;27;92369;-77
2024/01/25 09:45:16;;;;;;;13.93;3.80;;;;;;;;;;5057902;27;92936;-81
2024/01/25 09:47:43;;;;;;;13.60;3.67;;;;;;;;;;5058472;27;92491;-78
2024/01/25 09:50:10;;;;;;;11.90;3.75;;;;;;;;;;5057450;27;92388;-79
2024/01/25 09:52:43;;;;;;;10.38;3.15;;;;;;;;;;5057555;27;92424;-79
2024/01/25 09:55:13;;;;;;;11.05;4.00;;;;;;;;;;5051348;27;92526;-76
2024/01/25 09:57:41;;;;;;;14.23;3.60;;;;;;;;;;5056374;27;92073;-81
2024/01/25 10:00:11;;;;;;;16.40;4.10;;;;;;;;;;5055964;27;94014;-77
2024/01/25 10:02:38;;;;;;;14.13;3.92;;;;;;;;;;5038309;27;92257;-77
2024/01/25 10:05:05;;;;;;;32.20;5.75;;;;;;;;;;5055373;27;94917;-78
2024/01/25 10:07:36;;;;;;;14.65;3.85;;;;;;;;;;5040241;27;95295;-79
2024/01/25 10:10:05;;;;;;;18.52;4.10;;;;;;;;;;5058087;27;91885;-77
2024/01/25 10:12:31;;;;;;;13.93;3.80;;;;;;;;;;5056860;27;94119;-81
2024/01/25 10:14:58;;;;;;;28.60;4.55;;;;;;;;;;5058519;27;93028;-79
2024/01/25 10:17:25;;;;;;;18.92;4.80;;;;;;;;;;5041957;27;92236;-78
2024/01/25 10:19:52;;;;;;;14.68;4.05;;;;;;;;;;5057613;27;92865;-79
2024/01/25 10:22:19;;;;;;;9.95;3.33;;;;;;;;;;5057321;27;92006;-77
2024/01/25 10:24:46;;;;;;;11.65;3.53;;;;;;;;;;5056645;27;92344;-79
2024/01/25 10:27:16;;;;;;;12.45;3.92;;;;;;;;;;5061844;27;92478;-80
2024/01/25 10:29:43;;;;;;;16.52;3.63;;;;;;;;;;5043870;27;96704;-79
2024/01/25 10:32:09;;;;;;;9.73;3.80;;;;;;;;;;5064087;27;92504;-80
2024/01/25 10:34:39;;;;;;;11.57;3.78;;;;;;;;;;5062924;27;92118;-79
2024/01/25 10:37:07;;;;;;;16.65;3.88;;;;;;;;;;5051990;27;92411;-78
2024/01/25 10:39:34;;;;;;;12.60;3.45;;;;;;;;;;5059003;27;92424;-77
2024/01/25 10:42:00;;;;;;;13.40;3.55;;;;;;;;;;5055565;27;92423;-77
2024/01/25 10:44:27;;;;;;;20.10;4.30;;;;;;;;;;5055627;27;92759;-77
2024/01/25 10:46:54;;;;;;;10.00;3.17;;;;;;;;;;5037395;27;92105;-78
2024/01/25 10:49:21;;;;;;;12.43;3.50;;;;;;;;;;5055403;27;92378;-77
2024/01/25 10:51:49;;;;;;;13.90;4.05;;;;;;;;;;5055694;27;92314;-77
2024/01/25 10:54:16;;;;;;;13.80;4.03;;;;;;;;;;5054443;27;94585;-77
2024/01/25 10:56:47;;;;;;;10.43;3.10;;;;;;;;;;5055719;27;92400;-77
2024/01/25 10:59:15;;;;;;;17.73;3.90;;;;;;;;;;5055476;27;92579;-77
2024/01/25 11:01:45;;;;;;;14.70;3.63;;;;;;;;;;5058592;27;92386;-77
2024/01/25 11:04:12;;;;;;;13.85;3.28;;;;;;;;;;5037606;27;92965;-77
2024/01/25 11:06:39;;;;;;;11.35;3.55;;;;;;;;;;5054877;27;92655;-77
2024/01/25 11:09:06;;;;;;;9.57;3.05;;;;;;;;;;5055162;27;92551;-77
2024/01/25 11:11:35;;;;;;;14.27;3.22;;;;;;;;;;5055869;27;92053;-77
2024/01/25 11:14:02;;;;;;;8.75;3.03;;;;;;;;;;5036479;27;92501;-77
2024/01/25 11:16:31;;;;;;;13.30;3.42;;;;;;;;;;5054956;27;93200;-77
2024/01/25 11:19:04;;;;;;;11.45;3.33;;;;;;;;;;5034894;27;94748;-77
2024/01/25 11:21:39;;;;;;;17.20;4.05;;;;;;;;;;5036823;27;95202;-77
2024/01/25 11:24:11;;;;;;;10.98;3.20;;;;;;;;;;5058149;27;92541;-77
2024/01/25 11:26:37;;;;;;;11.35;3.15;;;;;;;;;;5055064;27;93706;-77
2024/01/25 11:29:04;;;;;;;13.90;3.83;;;;;;;;;;5054658;27;93497;-75
2024/01/25 11:31:31;;;;;;;16.33;3.50;;;;;;;;;;5058039;27;93939;-75
2024/01/25 11:33:59;;;;;;;11.55;3.25;;;;;;;;;;5037468;27;92492;-75
2024/01/25 11:36:26;;;;;;;11.32;3.55;;;;;;;;;;5057238;27;92118;-75
2024/01/25 11:38:57;;;;;;;13.13;3.65;;;;;;;;;;5055108;27;93965;-77
2024/01/25 11:41:24;;;;;;;12.27;3.10;;;;;;;;;;5019776;28;92930;-75
2024/01/25 11:43:50;;;;;;;13.05;3.88;;;;;;;;;;5044878;27;94767;-75
2024/01/25 11:46:17;;;;;;;13.70;3.30;;;;;;;;;;5039264;27;92481;-75
2024/01/25 11:48:44;;;;;;;14.27;3.15;;;;;;;;;;5036914;27;93249;-75
2024/01/25 11:51:11;;;;;;;15.13;3.97;;;;;;;;;;5054256;27;92163;-77
2024/01/25 11:53:38;;;;;;;13.73;3.90;;;;;;;;;;5055171;27;92389;-77
2024/01/25 11:56:06;;;;;;;10.48;3.80;;;;;;;;;;5053867;27;92230;-77
2024/01/25 11:58:33;;;;;;;13.35;3.40;;;;;;;;;;5016640;27;94003;-76
2024/01/25 12:01:05;;;;;;;14.18;3.92;;;;;;;;;;5048347;27;92117;-76
2024/01/25 12:03:32;;;;;;;19.80;4.70;;;;;;;;;;5053569;27;92107;-77
2024/01/25 12:06:00;;;;;;;14.15;3.40;;;;;;;;;;5057742;27;92107;-77
2024/01/25 12:08:27;;;;;;;15.48;3.70;;;;;;;;;;5034386;27;96028;-76
2024/01/25 12:11:06;;;;;;;9.30;3.38;;;;;;;;;;5040235;27;92545;-77
2024/01/25 12:13:33;;;;;;;18.52;3.17;;;;;;;;;;5055788;27;92333;-77
2024/01/25 12:16:00;;;;;;;12.50;3.13;;;;;;;;;;5041743;27;93552;-78
2024/01/25 12:18:27;;;;;;;14.93;3.97;;;;;;;;;;5056406;27;92416;-75
2024/01/25 12:20:54;;;;;;;12.25;3.40;;;;;;;;;;5053304;27;92557;-76
2024/01/25 12:23:21;;;;;;;14.93;3.75;;;;;;;;;;5036108;27;92227;-77
2024/01/25 12:25:47;;;;;;;16.00;4.28;;;;;;;;;;5050889;27;92836;-77
2024/01/25 12:28:14;;;;;;;12.25;4.22;;;;;;;;;;5057698;27;92624;-75
2024/01/25 12:30:40;;;;;;;17.10;4.18;;;;;;;;;;5035919;27;95903;-77
2024/01/25 12:33:07;;;;;;;17.27;4.82;;;;;;;;;;5035027;27;94847;-77
2024/01/25 12:35:34;;;;;;;18.90;4.53;;;;;;;;;;5006856;27;93867;-76
2024/01/25 12:38:01;;;;;;;21.30;4.85;;;;;;;;;;5054744;27;92526;-76
2024/01/25 12:40:27;;;;;;;14.65;3.85;;;;;;;;;;5052300;27;92957;-76
2024/01/25 12:42:55;;;;;;;14.93;4.38;;;;;;;;;;5052163;27;92294;-76
2024/01/25 12:45:22;;;;;;;18.25;4.00;;;;;;;;;;5052402;27;92292;-76
2024/01/25 12:47:48;;;;;;;17.75;4.07;;;;;;;;;;5053944;27;92416;-77
2024/01/25 12:50:15;;;;;;;21.63;4.35;;;;;;;;;;5060341;27;93169;-77
2024/01/25 12:52:42;;;;;;;17.55;5.00;;;;;;;;;;5038595;27;93431;-76
2024/01/25 12:55:08;;;;;;;16.05;4.28;;;;;;;;;;5039163;27;92108;-76
2024/01/25 12:57:36;;;;;;;13.77;3.35;;;;;;;;;;5034783;28;94696;-78
2024/01/25 13:00:04;;;;;;;13.98;3.95;;;;;;;;;;5037900;27;94418;-76
2024/01/25 13:02:31;;;;;;;14.27;4.10;;;;;;;;;;5036720;27;92786;-76
2024/01/25 13:04:58;;;;;;;15.00;4.30;;;;;;;;;;5036058;28;92987;-76
2024/01/25 13:07:24;;;;;;;14.27;3.72;;;;;;;;;;5037047;27;92915;-76
2024/01/25 13:09:51;;;;;;;16.98;3.83;;;;;;;;;;5040346;27;94548;-76
2024/01/25 13:12:18;;;;;;;12.48;4.38;;;;;;;;;;5037791;28;92461;-76
2024/01/25 13:14:44;;;;;;;18.70;3.75;;;;;;;;;;5038323;28;91793;-75
2024/01/25 13:17:11;;;;;;;15.25;4.15;;;;;;;;;;5036032;28;92348;-75
2024/01/25 13:19:37;;;;;;;13.30;3.42;;;;;;;;;;5033668;28;92893;-76
2024/01/25 13:22:04;;;;;;;14.27;3.92;;;;;;;;;;5035398;27;94801;-76
2024/01/25 13:24:30;;;;;;;14.00;4.03;;;;;;;;;;5035005;28;92333;-75
2024/01/25 13:26:57;;;;;;;10.50;3.40;;;;;;;;;;5036828;28;92385;-76
2024/01/25 13:29:23;;;;;;;9.82;3.42;;;;;;;;;;5027825;28;92155;-76
2024/01/25 13:31:50;;;;;;;14.95;4.03;;;;;;;;;;5036641;28;92524;-76
2024/01/25 13:34:16;;;;;;;14.30;4.28;;;;;;;;;;5039836;28;92344;-76
2024/01/25 13:36:43;;;;;;;9.23;3.38;;;;;;;;;;5036475;27;92788;-76
2024/01/25 13:39:10;;;;;;;19.63;4.50;;;;;;;;;;5036975;28;91884;-76
2024/01/25 13:41:37;;;;;;;14.73;4.47;;;;;;;;;;5037164;27;92409;-76
2024/01/25 13:44:03;;;;;;;16.40;3.83;;;;;;;;;;5036965;28;92450;-76
2024/01/25 13:46:29;;;;;;;13.82;3.42;;;;;;;;;;5035323;28;94870;-76
2024/01/25 13:48:56;;;;;;;12.38;4.10;;;;;;;;;;5038585;27;92157;-75
2024/01/25 13:51:22;;;;;;;15.57;4.25;;;;;;;;;;5038506;27;92072;-75
2024/01/25 13:53:49;;;;;;;13.90;4.13;;;;;;;;;;5041692;27;92959;-77
2024/01/25 13:56:16;;;;;;;14.15;3.60;;;;;;;;;;5034807;28;92583;-77
2024/01/25 13:58:43;;;;;;;16.50;4.20;;;;;;;;;;5034431;27;93345;-77
2024/01/25 14:01:09;;;;;;;19.48;4.60;;;;;;;;;;5050332;28;91953;-77
2024/01/25 14:03:36;;;;;;;13.95;4.05;;;;;;;;;;5050396;28;92262;-77
2024/01/25 14:06:04;;;;;;;12.27;4.45;;;;;;;;;;5037014;28;92945;-76
2024/01/25 14:08:32;;;;;;;9.25;3.97;;;;;;;;;;5034734;28;92377;-76
2024/01/25 14:10:58;;;;;;;8.88;3.75;;;;;;;;;;5034621;28;94493;-76
2024/01/25 14:13:25;;;;;;;12.30;3.80;;;;;;;;;;5035284;28;94159;-76
2024/01/25 14:15:51;;;;;;;7.95;2.95;;;;;;;;;;5039411;28;92715;-76
2024/01/25 14:18:18;;;;;;;14.05;4.22;;;;;;;;;;5036773;27;92822;-76
2024/01/25 14:20:45;;;;;;;13.02;3.53;;;;;;;;;;5034239;28;93610;-77
2024/01/25 14:23:11;;;;;;;15.02;3.15;;;;;;;;;;5035356;28;92321;-76
2024/01/25 14:25:38;;;;;;;10.88;3.70;;;;;;;;;;5036313;28;92097;-77
2024/01/25 14:28:05;;;;;;;14.77;4.47;;;;;;;;;;5036789;28;91810;-78